Time,TemperatureF,DewpointF,PressureIn,WindDirection,WindDirectionDegrees,WindSpeedMPH,WindSpeedGustMPH,Humidity,HourlyPrecipIn,Conditions,Clouds,dailyrainin,SoftwareType,DateUTC
2013-04-20 00:29:00,38.9,36.2,26.62,WNW,286,10.0,18.0,90,0.00,,,-99.99,VWS V12.07,2013-04-20 04:29:00,
2013-04-20 00:59:00,37.6,33.5,26.62,SW,231,3.0,12.0,85,0.00,,,-99.99,VWS V12.07,2013-04-20 04:59:00,
2013-04-20 01:30:00,36.9,32.5,26.61,West,259,10.0,15.0,84,0.00,,,-99.99,VWS V12.07,2013-04-20 05:30:00,
2013-04-20 01:59:00,37.1,33.0,26.62,WNW,286,15.0,18.0,85,0.00,,,-99.99,VWS V12.07,2013-04-20 05:59:00,
2013-04-20 02:29:00,37.1,33.0,26.62,WNW,295,12.0,18.0,85,0.00,,,-99.99,VWS V12.07,2013-04-20 06:29:00,
2013-04-20 02:59:00,36.3,32.2,26.62,West,263,13.0,20.0,85,0.00,,,-99.99,VWS V12.07,2013-04-20 06:59:00,
2013-04-20 07:31:00,35.2,27.4,26.74,West,281,0.0,5.0,73,0.00,,,-99.99,VWS V12.07,2013-04-20 11:31:00,
2013-04-20 08:01:00,36.8,30.0,26.76,SSW,203,0.0,5.0,76,0.00,,,-99.99,VWS V12.07,2013-04-20 12:01:00,
2013-04-20 08:32:00,37.6,30.4,26.76,West,275,0.0,5.0,75,0.00,,,-99.99,VWS V12.07,2013-04-20 12:32:00,
2013-04-20 09:01:00,38.6,31.0,26.78,West,274,0.0,5.0,74,0.00,,,-99.99,VWS V12.07,2013-04-20 13:01:00,
2013-04-20 09:31:00,39.6,31.7,26.79,South,185,0.0,5.0,73,0.00,,,-99.99,VWS V12.07,2013-04-20 13:31:00,
2013-04-20 11:40:00,45.2,35.3,26.81,SSW,202,0.0,5.0,68,0.00,,,-99.99,VWS V12.07,2013-04-20 15:40:00,
2013-04-20 12:31:00,46.7,35.6,26.81,SSW,193,0.0,5.0,65,0.00,,,-99.99,VWS V12.07,2013-04-20 16:31:00,
2013-04-20 13:01:00,47.7,36.5,26.81,SW,222,0.0,5.0,65,0.00,,,-99.99,VWS V12.07,2013-04-20 17:01:00,
2013-04-20 13:31:00,48.9,38.1,26.81,SSW,197,0.0,5.0,66,0.00,,,-99.99,VWS V12.07,2013-04-20 17:31:00,
2013-04-20 14:01:00,49.5,36.6,26.82,South,182,0.0,5.0,61,0.00,,,-99.99,VWS V12.07,2013-04-20 18:01:00,
2013-04-20 14:32:00,50.5,38.0,26.82,SSW,193,0.0,5.0,62,0.00,,,-99.99,VWS V12.07,2013-04-20 18:32:00,
2013-04-20 15:01:00,49.5,36.6,26.82,NNW,330,0.0,5.0,61,0.00,,,-99.99,VWS V12.07,2013-04-20 19:01:00,
2013-04-20 15:31:00,49.9,36.6,26.82,SSW,210,0.0,5.0,60,0.00,,,-99.99,VWS V12.07,2013-04-20 19:31:00,
2013-04-20 16:01:00,50.1,36.3,26.83,SSW,193,0.0,5.0,59,0.00,,,-99.99,VWS V12.07,2013-04-20 20:01:00,
2013-04-20 16:31:00,50.3,35.7,26.83,South,184,0.0,5.0,57,0.00,,,-99.99,VWS V12.07,2013-04-20 20:31:00,
2013-04-20 17:01:00,49.8,35.6,26.84,SSW,194,0.0,5.0,58,0.00,,,-99.99,VWS V12.07,2013-04-20 21:01:00,
2013-04-20 17:32:00,47.7,32.3,26.85,NW,309,0.0,5.0,55,0.00,,,-99.99,VWS V12.07,2013-04-20 21:32:00,
2013-04-20 18:01:00,46.7,32.7,26.86,WNW,302,0.0,5.0,58,0.00,,,-99.99,VWS V12.07,2013-04-20 22:01:00,
2013-04-20 18:31:00,46.3,31.9,26.86,NW,313,0.0,5.0,57,0.00,,,-99.99,VWS V12.07,2013-04-20 22:31:00,
2013-04-20 19:01:00,45.3,32.7,26.87,WNW,291,0.0,5.0,61,0.00,,,-99.99,VWS V12.07,2013-04-20 23:01:00,
2013-04-20 19:31:00,44.2,32.0,26.89,West,269,0.0,5.0,62,0.00,,,-99.99,VWS V12.07,2013-04-20 23:31:00,
2013-04-20 20:01:00,41.6,32.2,26.91,West,269,0.0,5.0,69,0.00,,,-99.99,VWS V12.07,2013-04-21 00:01:00,
2013-04-20 20:31:00,40.0,31.7,26.92,West,269,0.0,5.0,72,0.00,,,-99.99,VWS V12.07,2013-04-21 00:31:00,
2013-04-20 21:01:00,39.6,31.7,26.94,West,269,0.0,5.0,73,0.00,,,-99.99,VWS V12.07,2013-04-21 01:01:00,
2013-04-20 21:31:00,38.6,31.4,26.94,West,269,0.0,5.0,75,0.00,,,-99.99,VWS V12.07,2013-04-21 01:31:00,
2013-04-20 22:01:00,37.8,31.6,26.95,West,269,0.0,5.0,78,0.00,,,-99.99,VWS V12.07,2013-04-21 02:01:00,
2013-04-20 22:31:00,36.1,31.1,26.95,West,269,0.0,5.0,82,0.00,,,-99.99,VWS V12.07,2013-04-21 02:31:00,
2013-04-20 23:01:00,35.4,30.8,26.96,West,269,0.0,5.0,83,0.00,,,-99.99,VWS V12.07,2013-04-21 03:01:00,
2013-04-20 23:31:00,34.9,31.4,26.95,SW,235,0.0,5.0,87,0.00,,,-99.99,VWS V12.07,2013-04-21 03:31:00,